createdAt,value
2017-07-23T00:00:29.280Z,81.99
2017-07-23T00:01:39.554Z,81.99
2017-07-23T00:02:49.822Z,81.99
2017-07-23T00:04:00.090Z,82.28
2017-07-23T00:05:10.363Z,82.28
2017-07-23T00:06:20.324Z,82.37
2017-07-23T00:07:30.598Z,82.23
2017-07-23T00:08:40.870Z,83.09
2017-07-23T00:09:51.135Z,82.81
2017-07-23T00:11:01.093Z,83.76
2017-07-23T00:12:11.371Z,83.76
2017-07-23T00:13:21.642Z,83.67
2017-07-23T00:14:31.913Z,84.52
2017-07-23T00:15:42.178Z,85.29
2017-07-23T00:16:52.450Z,84.72
2017-07-23T00:18:02.720Z,85.19
2017-07-23T00:19:12.701Z,85.29
2017-07-23T00:20:22.969Z,85.29
2017-07-23T00:21:33.239Z,85.38
2017-07-23T00:22:43.515Z,85.86
2017-07-23T00:23:53.785Z,86.15
2017-07-23T00:25:04.059Z,85.58
2017-07-23T00:26:14.322Z,85.77
2017-07-23T00:27:24.278Z,85.48
2017-07-23T00:28:33.919Z,85
2017-07-23T00:29:44.191Z,84.62
2017-07-23T00:30:54.458Z,84.23
2017-07-23T00:32:04.732Z,84.05
2017-07-23T00:33:15.017Z,84.52
2017-07-23T00:34:24.982Z,84.05
2017-07-23T00:35:35.296Z,84.14
2017-07-23T00:36:44.946Z,85.1
2017-07-23T00:37:55.212Z,84.33
2017-07-23T00:39:05.477Z,84.52
2017-07-23T00:40:15.742Z,84.23
2017-07-23T00:41:26.027Z,83.95
2017-07-23T00:42:36.296Z,83.67
2017-07-23T00:43:46.263Z,82.94
2017-07-23T00:44:56.532Z,82.71
2017-07-23T00:46:06.803Z,82.42
2017-07-23T00:47:16.761Z,82.46
2017-07-23T00:48:27.025Z,82.65
2017-07-23T00:49:37.288Z,83.04
2017-07-23T00:50:47.245Z,82.94
2017-07-23T00:51:57.511Z,83.51
2017-07-23T00:53:07.782Z,83.42
2017-07-23T00:54:18.064Z,83.23
2017-07-23T00:55:28.331Z,83.13
2017-07-23T00:56:38.286Z,82.46
2017-07-23T00:57:48.556Z,82.56
2017-07-23T00:58:58.827Z,81.76
2017-07-23T01:00:09.103Z,82.37
2017-07-23T01:01:19.371Z,82.42
2017-07-23T01:02:29.640Z,83.09
2017-07-23T01:03:39.909Z,82.9
2017-07-23T01:04:49.864Z,83.47
2017-07-23T01:06:00.132Z,83.57
2017-07-23T01:07:10.085Z,83.38
2017-07-23T01:08:19.721Z,83.47
2017-07-23T01:09:29.987Z,83.57
2017-07-23T01:10:40.256Z,83.57
2017-07-23T01:11:49.905Z,84.33
2017-07-23T01:13:00.203Z,84.72
2017-07-23T01:14:09.842Z,85.05
2017-07-23T01:15:20.105Z,85.25
2017-07-23T01:16:30.373Z,85.44
2017-07-23T01:17:40.637Z,85.53
2017-07-23T01:18:50.905Z,86.58
2017-07-23T01:20:00.854Z,87.06
2017-07-23T01:21:10.810Z,86.68
2017-07-23T01:22:20.764Z,86.58
2017-07-23T01:23:31.033Z,86.54
2017-07-23T01:24:41.304Z,86.16
2017-07-23T01:25:51.576Z,86.16
2017-07-23T01:27:01.850Z,86.06
2017-07-23T01:28:11.804Z,86.35
2017-07-23T01:29:21.757Z,86.25
2017-07-23T01:30:32.053Z,86.35
2017-07-23T01:31:42.021Z,86.54
2017-07-23T01:32:52.291Z,86.54
2017-07-23T01:34:02.563Z,86.73
2017-07-23T01:35:12.518Z,87.02
2017-07-23T01:36:22.477Z,87.78
2017-07-23T01:37:32.428Z,87.78
2017-07-23T01:38:42.697Z,87.74
2017-07-23T01:39:52.976Z,88.02
2017-07-23T01:41:03.246Z,87.54
2017-07-23T01:42:13.522Z,87.45
2017-07-23T01:43:23.792Z,88.21
2017-07-23T01:44:34.060Z,87.74
2017-07-23T01:45:44.334Z,88.31
2017-07-23T01:46:54.604Z,88.21
2017-07-23T01:48:04.874Z,88.31
2017-07-23T01:49:14.833Z,88.59
2017-07-23T01:50:25.101Z,89.54
2017-07-23T01:51:35.054Z,89.36
2017-07-23T01:52:45.335Z,89.07
2017-07-23T01:53:55.605Z,89.83
2017-07-23T01:55:05.243Z,90.79
2017-07-23T01:56:15.515Z,90.98
2017-07-23T01:57:25.784Z,91.36
2017-07-23T01:58:36.051Z,90.12
2017-07-23T01:59:46.321Z,90.12
2017-07-23T02:00:56.589Z,90.31
2017-07-23T02:02:06.856Z,90.59
2017-07-23T02:03:17.126Z,90.88
2017-07-23T02:04:27.389Z,91.64
2017-07-23T02:05:37.491Z,91.17
2017-07-23T02:06:47.759Z,91.36
2017-07-23T02:07:57.708Z,91.83
2017-07-23T02:09:07.354Z,92.32
2017-07-23T02:10:17.627Z,92.32
2017-07-23T02:11:27.914Z,92.12
2017-07-23T02:12:38.187Z,93.03
2017-07-23T02:13:48.462Z,92.79
2017-07-23T02:14:58.731Z,92.36
2017-07-23T02:16:09.013Z,92.27
2017-07-23T02:17:22.328Z,92.08
2017-07-23T02:18:32.600Z,92.84
2017-07-23T02:19:42.871Z,93.32
2017-07-23T02:20:53.134Z,94.51
2017-07-23T02:22:03.395Z,95.27
2017-07-23T02:23:13.334Z,94.98
2017-07-23T02:24:23.601Z,95.08
2017-07-23T02:25:33.558Z,95.17
2017-07-23T02:26:43.823Z,94.32
2017-07-23T02:27:54.088Z,94.32
2017-07-23T02:29:04.354Z,93.84
2017-07-23T02:30:14.621Z,93.46
2017-07-23T02:31:24.890Z,93.55
2017-07-23T02:32:35.159Z,93.46
2017-07-23T02:33:45.429Z,93.55
2017-07-23T02:34:55.701Z,93.74
2017-07-23T02:36:05.974Z,94.03
2017-07-23T02:37:15.930Z,93.74
2017-07-23T02:38:26.203Z,93.65
2017-07-23T02:39:36.477Z,93.27
2017-07-23T02:40:46.751Z,93.08
2017-07-23T02:41:57.029Z,93.17
2017-07-23T02:43:07.301Z,93.17
2017-07-23T02:44:17.579Z,94.22
2017-07-23T02:45:27.846Z,93.65
2017-07-23T02:46:38.121Z,93.08
2017-07-23T02:47:48.401Z,92.98
2017-07-23T02:48:58.668Z,92.69
2017-07-23T02:50:08.643Z,92.69
2017-07-23T02:51:18.619Z,92.5
2017-07-23T02:52:28.894Z,92.41
2017-07-23T02:53:38.854Z,91.46
2017-07-23T02:54:49.122Z,92.22
2017-07-23T02:55:59.081Z,91.64
2017-07-23T02:57:09.040Z,91.93
2017-07-23T02:58:19.311Z,91.83
2017-07-23T02:59:29.592Z,91.46
2017-07-23T03:00:39.861Z,92.03
2017-07-23T03:01:49.814Z,91.46
2017-07-23T03:03:00.080Z,91.83
2017-07-23T03:04:10.346Z,91.74
2017-07-23T03:05:20.617Z,91.83
2017-07-23T03:06:30.572Z,91.55
2017-07-23T03:07:40.538Z,91.93
2017-07-23T03:08:50.806Z,91.64
2017-07-23T03:10:01.076Z,91.36
2017-07-23T03:11:11.350Z,91.17
2017-07-23T03:12:21.304Z,91.07
2017-07-23T03:13:31.584Z,92.03
2017-07-23T03:14:41.852Z,92.41
2017-07-23T03:15:51.808Z,93.08
2017-07-23T03:17:02.110Z,93.36
2017-07-23T03:18:12.383Z,93.27
2017-07-23T03:19:22.655Z,92.6
2017-07-23T03:20:32.925Z,92.12
2017-07-23T03:21:42.883Z,92.22
2017-07-23T03:22:53.149Z,92.41
2017-07-23T03:24:03.416Z,91.83
2017-07-23T03:25:13.685Z,91.93
2017-07-23T03:26:23.954Z,92.5
2017-07-23T03:27:34.222Z,92.12
2017-07-23T03:28:44.488Z,92.32
2017-07-23T03:29:54.750Z,92.22
2017-07-23T03:31:04.709Z,92.22
2017-07-23T03:32:14.993Z,92.5
2017-07-23T03:33:25.261Z,92.22
2017-07-23T03:34:35.226Z,92.22
2017-07-23T03:35:45.497Z,92.03
2017-07-23T03:36:55.763Z,92.79
2017-07-23T03:38:06.025Z,93.08
2017-07-23T03:39:15.982Z,93.17
2017-07-23T03:40:26.255Z,93.08
2017-07-23T03:41:36.538Z,92.69
2017-07-23T03:42:46.492Z,93.36
2017-07-23T03:43:56.760Z,93.55
2017-07-23T03:45:07.025Z,94.79
2017-07-23T03:46:17.292Z,94.7
2017-07-23T03:47:27.569Z,94.03
2017-07-23T03:48:37.525Z,94.12
2017-07-23T03:49:47.791Z,93.93
2017-07-23T03:50:58.057Z,93.17
2017-07-23T03:52:08.324Z,93.46
2017-07-23T03:53:18.590Z,92.88
2017-07-23T03:54:28.855Z,93.27
2017-07-23T03:55:38.808Z,92.98
2017-07-23T03:56:49.070Z,93.17
2017-07-23T03:57:59.342Z,93.55
2017-07-23T03:59:09.610Z,93.36
2017-07-23T04:00:19.882Z,93.74
2017-07-23T04:01:30.164Z,94.41
2017-07-23T04:02:40.432Z,94.22
2017-07-23T04:03:50.701Z,93.88
2017-07-23T04:05:00.659Z,93.79
2017-07-23T04:06:10.933Z,93.88
2017-07-23T04:07:21.199Z,93.88
2017-07-23T04:08:31.461Z,93.88
2017-07-23T04:09:41.728Z,93.6
2017-07-23T04:10:51.997Z,93.6
2017-07-23T04:12:01.951Z,94.36
2017-07-23T04:13:12.245Z,94.12
2017-07-23T04:14:21.888Z,94.22
2017-07-23T04:15:31.843Z,93.36
2017-07-23T04:16:42.115Z,93.65
2017-07-23T04:17:52.380Z,93.26
2017-07-23T04:19:02.657Z,93.65
2017-07-23T04:20:12.931Z,92.97
2017-07-23T04:21:22.887Z,93.46
2017-07-23T04:22:33.159Z,92.97
2017-07-23T04:23:43.114Z,92.93
2017-07-23T04:24:53.067Z,92.97
2017-07-23T04:26:03.331Z,92.16
2017-07-23T04:27:13.599Z,92.36
2017-07-23T04:28:23.866Z,91.88
2017-07-23T04:29:34.138Z,91.5
2017-07-23T04:30:44.411Z,91.3
2017-07-23T04:31:54.679Z,90.92
2017-07-23T04:33:04.949Z,90.92
2017-07-23T04:34:14.902Z,90.64
2017-07-23T04:35:25.172Z,90.64
2017-07-23T04:36:35.441Z,90.45
2017-07-23T04:37:45.403Z,90.92
2017-07-23T04:38:55.672Z,90.64
2017-07-23T04:40:05.628Z,90.64
2017-07-23T04:41:15.897Z,90.45
2017-07-23T04:42:26.161Z,90.45
2017-07-23T04:43:36.432Z,90.11
2017-07-23T04:44:46.389Z,90.39
2017-07-23T04:45:56.665Z,90.3
2017-07-23T04:47:06.939Z,89.92
2017-07-23T04:48:16.902Z,89.06
2017-07-23T04:49:27.167Z,89.34
2017-07-23T04:50:37.434Z,90.59
2017-07-23T04:51:47.390Z,90.2
2017-07-23T04:52:57.344Z,90.39
2017-07-23T04:54:07.301Z,90.2
2017-07-23T04:55:17.570Z,91.06
2017-07-23T04:56:27.844Z,90.73
2017-07-23T04:57:38.131Z,90.39
2017-07-23T04:58:48.402Z,90.68
2017-07-23T04:59:58.678Z,90.25
2017-07-23T05:01:08.656Z,89.96
2017-07-23T05:02:18.923Z,89.96
2017-07-23T05:03:29.194Z,89.29
2017-07-23T05:04:39.464Z,89.48
2017-07-23T05:05:49.734Z,89.48
2017-07-23T05:07:00.010Z,89.1
2017-07-23T05:08:10.283Z,89.48
2017-07-23T05:09:20.554Z,89.67
2017-07-23T05:10:30.853Z,89.29
2017-07-23T05:11:41.123Z,89.1
2017-07-23T05:12:51.076Z,89.29
2017-07-23T05:14:01.356Z,89.05
2017-07-23T05:15:11.628Z,89.24
2017-07-23T05:16:21.587Z,88.86
2017-07-23T05:17:31.866Z,88.57
2017-07-23T05:18:42.151Z,87.9
2017-07-23T05:19:52.423Z,87.62
2017-07-23T05:21:02.696Z,87.23
2017-07-23T05:22:12.976Z,86.76
2017-07-23T05:23:22.945Z,86.37
2017-07-23T05:24:32.902Z,86.47
2017-07-23T05:25:43.172Z,85.36
2017-07-23T05:26:53.438Z,85.46
2017-07-23T05:28:03.401Z,85.13
2017-07-23T05:29:13.669Z,85.46
2017-07-23T05:30:23.943Z,84.41
2017-07-23T05:31:34.219Z,84.41
2017-07-23T05:32:44.490Z,84.22
2017-07-23T05:33:54.766Z,84.41
2017-07-23T05:35:04.740Z,84.59
2017-07-23T05:36:14.701Z,84.16
2017-07-23T05:37:24.972Z,84.64
2017-07-23T05:38:35.237Z,84.26
2017-07-23T05:39:45.193Z,84.41
2017-07-23T05:40:55.465Z,84.5
2017-07-23T05:42:05.743Z,84.88
2017-07-23T05:43:16.019Z,84.5
2017-07-23T05:44:26.296Z,84.41
2017-07-23T05:45:36.573Z,84.41
2017-07-23T05:46:46.849Z,84.06
2017-07-23T05:47:57.123Z,83.01
2017-07-23T05:49:07.080Z,82.82
2017-07-23T05:50:17.370Z,82.06
2017-07-23T05:51:27.010Z,82.15
2017-07-23T05:52:37.282Z,82.06
2017-07-23T05:53:47.559Z,81.96
2017-07-23T05:54:57.831Z,81.86
2017-07-23T05:56:08.118Z,81.77
2017-07-23T05:57:18.078Z,81.86
2017-07-23T05:58:28.352Z,82.15
2017-07-23T05:59:38.317Z,82
2017-07-23T06:00:48.587Z,82
2017-07-23T06:01:58.869Z,81.43
2017-07-23T06:03:09.153Z,80.94
2017-07-23T06:04:19.107Z,81.33
2017-07-23T06:05:29.379Z,81.33
2017-07-23T06:06:39.664Z,81.13
2017-07-23T06:07:49.933Z,80.76
2017-07-23T06:08:59.894Z,81.04
2017-07-23T06:10:10.165Z,81.04
2017-07-23T06:11:20.452Z,81.33
2017-07-23T06:12:30.723Z,80.94
2017-07-23T06:13:40.992Z,81.23
2017-07-23T06:14:51.264Z,80.94
2017-07-23T06:16:01.536Z,81.43
2017-07-23T06:17:11.804Z,81.13
2017-07-23T06:18:21.759Z,81.1
2017-07-23T06:19:32.031Z,81
2017-07-23T06:20:42.302Z,81.1
2017-07-23T06:21:52.580Z,81.38
2017-07-23T06:23:02.538Z,81.38
2017-07-23T06:24:12.818Z,81.86
2017-07-23T06:25:22.783Z,81.86
2017-07-23T06:26:33.077Z,81.38
2017-07-23T06:27:43.350Z,81.33
2017-07-23T06:28:53.632Z,81.04
2017-07-23T06:30:03.593Z,81.62
2017-07-23T06:31:13.549Z,81.43
2017-07-23T06:32:23.821Z,81.33
2017-07-23T06:33:34.091Z,80.94
2017-07-23T06:34:44.366Z,81.04
2017-07-23T06:35:54.680Z,80.94
2017-07-23T06:37:04.340Z,80.94
2017-07-23T06:38:14.616Z,80.56
2017-07-23T06:39:24.577Z,80.76
2017-07-23T06:40:34.852Z,80.56
2017-07-23T06:41:45.124Z,80.37
2017-07-23T06:42:55.397Z,80.12
2017-07-23T06:44:05.672Z,79.45
2017-07-23T06:45:15.633Z,80.03
2017-07-23T06:46:25.592Z,80.32
2017-07-23T06:47:35.876Z,80.12
2017-07-23T06:48:46.162Z,79.83
2017-07-23T06:49:56.429Z,79.55
2017-07-23T06:51:06.702Z,79.55
2017-07-23T06:52:16.973Z,78.88
2017-07-23T06:53:26.942Z,79.11
2017-07-23T06:54:37.215Z,78.34
2017-07-23T06:55:47.170Z,78.25
2017-07-23T06:56:57.454Z,78.63
2017-07-23T06:58:07.414Z,78.92
2017-07-23T06:59:17.687Z,79.11
2017-07-23T07:00:27.959Z,78.82
2017-07-23T07:01:38.232Z,79.01
2017-07-23T07:02:48.502Z,78.92
2017-07-23T07:03:58.774Z,78.63
2017-07-23T07:05:09.045Z,78.44
2017-07-23T07:06:19.320Z,78.63
2017-07-23T07:07:29.591Z,77.67
2017-07-23T07:08:39.551Z,77.95
2017-07-23T07:09:49.830Z,78.34
2017-07-23T07:11:00.110Z,78
2017-07-23T07:12:10.070Z,78
2017-07-23T07:13:20.340Z,78
2017-07-23T07:14:30.618Z,78.38
2017-07-23T07:15:40.888Z,77.71
2017-07-23T07:16:51.162Z,77.33
2017-07-23T07:18:01.131Z,77.42
2017-07-23T07:19:11.411Z,77.17
2017-07-23T07:20:21.680Z,76.88
2017-07-23T07:21:31.949Z,77.17
2017-07-23T07:22:42.229Z,76.5
2017-07-23T07:23:52.501Z,76.5
2017-07-23T07:25:02.459Z,76.31
2017-07-23T07:26:12.735Z,76.12
2017-07-23T07:27:23.011Z,76.31
2017-07-23T07:28:32.972Z,76.21
2017-07-23T07:29:43.246Z,76.4
2017-07-23T07:30:53.520Z,75.54
2017-07-23T07:32:03.794Z,76.02
2017-07-23T07:33:14.064Z,75.54
2017-07-23T07:34:24.338Z,74.81
2017-07-23T07:35:34.615Z,74.87
2017-07-23T07:36:44.896Z,74.62
2017-07-23T07:37:55.171Z,73.94
2017-07-23T07:39:05.138Z,73.94
2017-07-23T07:40:15.101Z,74.43
2017-07-23T07:41:25.370Z,74.13
2017-07-23T07:42:35.702Z,74.13
2017-07-23T07:43:45.980Z,74.62
2017-07-23T07:44:56.257Z,73.75
2017-07-23T07:46:05.907Z,73.18
2017-07-23T07:47:15.870Z,73.41
2017-07-23T07:48:26.147Z,73.66
2017-07-23T07:49:36.420Z,72.25
2017-07-23T07:50:46.380Z,71.87
2017-07-23T07:51:56.650Z,71.96
2017-07-23T07:53:06.615Z,71.77
2017-07-23T07:54:16.582Z,71.39
2017-07-23T07:55:26.539Z,71.67
2017-07-23T07:56:36.820Z,71.87
2017-07-23T07:57:47.112Z,71.19
2017-07-23T07:58:57.388Z,71.1
2017-07-23T08:00:07.661Z,71.48
2017-07-23T08:01:17.624Z,70.94
2017-07-23T08:02:27.908Z,71.77
2017-07-23T08:03:38.188Z,72.19
2017-07-23T08:04:48.461Z,72.48
2017-07-23T08:05:58.424Z,72.16
2017-07-23T08:07:08.701Z,73.21
2017-07-23T08:08:18.975Z,72.92
2017-07-23T08:09:28.633Z,72.58
2017-07-23T08:10:37.971Z,73.15
2017-07-23T08:11:47.944Z,72.77
2017-07-23T08:12:58.217Z,73.06
2017-07-23T08:14:08.524Z,71.42
2017-07-23T08:15:18.479Z,72
2017-07-23T08:16:28.753Z,71.75
2017-07-23T08:17:39.028Z,71.36
2017-07-23T08:18:49.302Z,71.36
2017-07-23T08:19:58.947Z,71.46
2017-07-23T08:21:09.221Z,70.88
2017-07-23T08:22:19.178Z,70.88
2017-07-23T08:23:29.451Z,70.21
2017-07-23T08:24:39.408Z,70.82
2017-07-23T08:25:49.363Z,70.4
2017-07-23T08:26:59.638Z,70.62
2017-07-23T08:28:09.917Z,70.24
2017-07-23T08:29:19.573Z,70.43
2017-07-23T08:30:29.530Z,69.76
2017-07-23T08:31:39.491Z,69.57
2017-07-23T08:32:49.771Z,69.09
2017-07-23T08:34:00.077Z,68.6
2017-07-23T08:35:10.051Z,67.97
2017-07-23T08:36:20.325Z,68.06
2017-07-23T08:37:30.285Z,67.87
2017-07-23T08:38:40.570Z,68.44
2017-07-23T08:39:50.858Z,68.06
2017-07-23T08:41:01.137Z,68.16
2017-07-23T08:42:11.096Z,67.77
2017-07-23T08:43:21.373Z,66.81
2017-07-23T08:44:31.336Z,66.14
2017-07-23T08:45:41.301Z,66.71
2017-07-23T08:46:51.579Z,65.78
2017-07-23T08:48:01.855Z,65.88
2017-07-23T08:49:11.816Z,66.27
2017-07-23T08:50:21.780Z,65.98
2017-07-23T08:51:32.054Z,65.4
2017-07-23T08:52:42.022Z,65.2
2017-07-23T08:53:52.298Z,64.25
2017-07-23T08:55:02.604Z,64.43
2017-07-23T08:56:12.881Z,64.05
2017-07-23T08:57:23.154Z,63.28
2017-07-23T08:58:33.123Z,63.76
2017-07-23T08:59:43.418Z,63.21
2017-07-23T09:00:53.384Z,62.54
2017-07-23T09:02:03.663Z,62.06
2017-07-23T09:03:13.621Z,61.19
2017-07-23T09:04:23.894Z,61.77
2017-07-23T09:05:33.562Z,62.35
2017-07-23T09:06:43.519Z,61.96
2017-07-23T09:07:53.795Z,61.19
2017-07-23T09:09:03.754Z,61.68
2017-07-23T09:10:13.736Z,61.29
2017-07-23T09:11:24.008Z,61.19
2017-07-23T09:12:33.970Z,62.25
2017-07-23T09:13:43.934Z,62.25
2017-07-23T09:14:53.906Z,61
2017-07-23T09:16:04.182Z,61.1
2017-07-23T09:17:14.469Z,60.83
2017-07-23T09:18:24.780Z,60.71
2017-07-23T09:19:35.071Z,60.52
2017-07-23T09:20:44.727Z,60.93
2017-07-23T09:21:55.008Z,61.03
2017-07-23T09:23:05.290Z,59.87
2017-07-23T09:24:15.563Z,60.64
2017-07-23T09:25:25.838Z,61.41
2017-07-23T09:26:36.141Z,61.8
2017-07-23T09:27:46.420Z,61.32
2017-07-23T09:28:56.382Z,61.22
2017-07-23T09:30:06.385Z,61.32
2017-07-23T09:31:16.657Z,61.71
2017-07-23T09:32:26.939Z,61.32
2017-07-23T09:33:37.219Z,61.06
2017-07-23T09:34:46.862Z,61.03
2017-07-23T09:35:56.510Z,61.35
2017-07-23T09:37:06.831Z,61.35
2017-07-23T09:38:16.792Z,61.16
2017-07-23T09:39:27.077Z,60.86
2017-07-23T09:40:37.359Z,60.1
2017-07-23T09:41:47.006Z,60
2017-07-23T09:42:56.346Z,59.23
2017-07-23T09:44:06.631Z,59.8
2017-07-23T09:45:16.592Z,59.32
2017-07-23T09:46:26.552Z,59.03
2017-07-23T09:47:36.831Z,60
2017-07-23T09:48:47.109Z,59.32
2017-07-23T09:49:57.078Z,59.61
2017-07-23T09:51:07.039Z,59.61
2017-07-23T09:52:17.001Z,59.61
2017-07-23T09:53:26.963Z,59.42
2017-07-23T09:54:37.238Z,58.84
2017-07-23T09:55:47.199Z,58.48
2017-07-23T09:56:57.161Z,58.68
2017-07-23T09:58:07.437Z,59.35
2017-07-23T09:59:17.400Z,58.97
2017-07-23T10:00:27.367Z,58.58
2017-07-23T10:01:37.654Z,57.81
2017-07-23T10:02:47.932Z,57.71
2017-07-23T10:03:57.893Z,58.39
2017-07-23T10:05:07.857Z,56.94
2017-07-23T10:06:17.510Z,56.16
2017-07-23T10:07:27.788Z,57.35
2017-07-23T10:08:38.076Z,57.06
2017-07-23T10:09:48.362Z,57.06
2017-07-23T10:10:58.653Z,57.35
2017-07-23T10:12:08.612Z,56.29
2017-07-23T10:13:18.266Z,56.87
2017-07-23T10:14:28.550Z,55.62
2017-07-23T10:15:38.512Z,55.9
2017-07-23T10:16:48.802Z,56
2017-07-23T10:17:59.084Z,56.22
2017-07-23T10:19:09.361Z,55.07
2017-07-23T10:20:19.639Z,54.97
2017-07-23T10:21:29.628Z,54.87
2017-07-23T10:22:39.901Z,54.97
2017-07-23T10:23:49.862Z,53.23
2017-07-23T10:25:00.143Z,53.33
2017-07-23T10:26:10.421Z,54.87
2017-07-23T10:27:20.695Z,54.19
2017-07-23T10:28:30.656Z,53.91
2017-07-23T10:29:40.615Z,53.25
2017-07-23T10:30:50.891Z,53.25
2017-07-23T10:32:01.176Z,53.93
2017-07-23T10:33:11.459Z,54.32
2017-07-23T10:34:21.743Z,54.13
2017-07-23T10:35:31.705Z,52.7
2017-07-23T10:36:41.674Z,52.89
2017-07-23T10:37:51.669Z,52.8
2017-07-23T10:39:01.651Z,51.73
2017-07-23T10:40:11.932Z,51.18
2017-07-23T10:41:21.895Z,51.73
2017-07-23T10:42:32.177Z,51.95
2017-07-23T10:43:42.144Z,51.28
2017-07-23T10:44:52.431Z,51.18
2017-07-23T10:46:02.707Z,50.24
2017-07-23T10:47:12.368Z,50.43
2017-07-23T10:48:22.645Z,50.43
2017-07-23T10:49:32.923Z,49.27
2017-07-23T10:50:43.196Z,48.97
2017-07-23T10:51:53.466Z,49.95
2017-07-23T10:53:03.442Z,50.33
2017-07-23T10:54:13.720Z,49.65
2017-07-23T10:55:23.057Z,51.3
2017-07-23T10:56:33.343Z,50.33
2017-07-23T10:57:43.648Z,51.1
2017-07-23T10:58:53.927Z,50.72
2017-07-23T11:00:03.893Z,49.87
2017-07-23T11:01:13.863Z,48.97
2017-07-23T11:02:24.140Z,48.3
2017-07-23T11:03:34.107Z,48.69
2017-07-23T11:04:44.074Z,48.52
2017-07-23T11:05:54.041Z,48.71
2017-07-23T11:07:04.366Z,47.06
2017-07-23T11:08:14.640Z,46.77
2017-07-23T11:09:24.604Z,45.81
2017-07-23T11:10:34.885Z,44.64
2017-07-23T11:11:44.537Z,46.67
2017-07-23T11:12:54.500Z,45.32
2017-07-23T11:14:04.779Z,45.54
2017-07-23T11:15:15.057Z,45.44
2017-07-23T11:16:25.335Z,45.83
2017-07-23T11:17:35.299Z,45.73
2017-07-23T11:18:45.588Z,45.73
2017-07-23T11:19:55.559Z,45.34
2017-07-23T11:21:05.530Z,46.22
2017-07-23T11:22:15.496Z,44.47
2017-07-23T11:23:25.773Z,44.01
2017-07-23T11:24:35.747Z,45.07
2017-07-23T11:25:46.021Z,44.47
2017-07-23T11:26:55.985Z,44.3
2017-07-23T11:28:05.949Z,45.85
2017-07-23T11:29:15.916Z,45.47
2017-07-23T11:30:25.883Z,44.3
2017-07-23T11:31:36.165Z,44.1
2017-07-23T11:32:46.452Z,44.01
2017-07-23T11:33:56.738Z,44.13
2017-07-23T11:35:07.018Z,42.86
2017-07-23T11:36:16.665Z,42.99
2017-07-23T11:37:26.628Z,42.61
2017-07-23T11:38:36.593Z,43.02
2017-07-23T11:39:46.561Z,42.66
2017-07-23T11:40:56.841Z,40.47
2017-07-23T11:42:06.807Z,41.06
2017-07-23T11:43:16.776Z,40.11
2017-07-23T11:44:27.054Z,39.57
2017-07-23T11:45:37.332Z,37.46
2017-07-23T11:46:47.305Z,36.41
2017-07-23T11:47:57.590Z,36.34
2017-07-23T11:49:07.870Z,35.09
2017-07-23T11:50:18.153Z,33.75
2017-07-23T11:51:28.437Z,33.39
2017-07-23T11:52:38.734Z,32.04
2017-07-23T11:53:48.391Z,32.35
2017-07-23T11:54:58.049Z,31.7
2017-07-23T11:56:08.357Z,31.41
2017-07-23T11:57:18.018Z,30.15
2017-07-23T11:58:27.674Z,28.2
2017-07-23T11:59:37.969Z,28.51
2017-07-23T12:00:47.937Z,27.34
2017-07-23T12:01:58.226Z,28.42
2017-07-23T12:03:08.200Z,27.96
2017-07-23T12:04:17.867Z,25.32
2017-07-23T12:05:28.155Z,25.02
2017-07-23T12:06:38.439Z,24.93
2017-07-23T12:07:48.412Z,23.86
2017-07-23T12:08:58.699Z,23.07
2017-07-23T12:10:08.671Z,24.06
2017-07-23T12:11:18.966Z,23.38
2017-07-23T12:12:28.626Z,23.88
2017-07-23T12:13:38.911Z,23.39
2017-07-23T12:14:49.200Z,22.81
2017-07-23T12:15:59.177Z,23
2017-07-23T12:17:09.466Z,21.73
2017-07-23T12:18:19.755Z,20.65
2017-07-23T12:19:30.042Z,21.55
2017-07-23T12:20:40.337Z,21.94
2017-07-23T12:21:50.625Z,21.36
2017-07-23T12:23:00.916Z,20.57
2017-07-23T12:24:11.208Z,19.19
2017-07-23T12:25:20.870Z,20.68
2017-07-23T12:26:30.846Z,20.39
2017-07-23T12:27:41.137Z,21.09
2017-07-23T12:28:51.114Z,20.41
2017-07-23T12:30:01.405Z,18.52
2017-07-23T12:31:11.695Z,19.13
2017-07-23T12:32:21.362Z,19.14
2017-07-23T12:33:31.357Z,18.75
2017-07-23T12:34:41.650Z,19.46
2017-07-23T12:35:51.624Z,17.48
2017-07-23T12:37:01.929Z,18.27
2017-07-23T12:38:11.912Z,18.57
2017-07-23T12:39:21.890Z,18.18
2017-07-23T12:40:31.875Z,18.37
2017-07-23T12:41:41.853Z,16.69
2017-07-23T12:42:52.302Z,16.99
2017-07-23T12:44:02.278Z,17.88
2017-07-23T12:45:12.256Z,17.19
2017-07-23T12:46:22.234Z,17.19
2017-07-23T12:47:32.528Z,17.09
2017-07-23T12:48:42.823Z,16.9
2017-07-23T12:49:53.138Z,16.81
2017-07-23T12:51:03.438Z,16.91
2017-07-23T12:52:13.730Z,16.33
2017-07-23T12:53:24.034Z,15.53
2017-07-23T12:54:34.340Z,16.33
2017-07-23T12:55:44.324Z,15.03
2017-07-23T12:56:54.664Z,15.34
2017-07-23T12:58:04.956Z,15.22
2017-07-23T12:59:15.245Z,15.5
2017-07-23T13:00:25.536Z,16.17
2017-07-23T13:01:35.825Z,17.05
2017-07-23T13:02:45.800Z,17.22
2017-07-23T13:03:55.775Z,17.7
2017-07-23T13:05:06.068Z,17.87
2017-07-23T13:06:15.735Z,19.04
2017-07-23T13:07:25.398Z,20.01
2017-07-23T13:08:35.686Z,21.06
2017-07-23T13:09:45.972Z,21.05
2017-07-23T13:10:56.268Z,22.01
2017-07-23T13:12:06.244Z,21.9
2017-07-23T13:13:16.539Z,22.28
2017-07-23T13:14:26.199Z,22.96
2017-07-23T13:15:35.858Z,23.43
2017-07-23T13:16:46.147Z,23.91
2017-07-23T13:17:56.431Z,24.69
2017-07-23T13:19:06.719Z,24.69
2017-07-23T13:20:16.693Z,24.01
2017-07-23T13:21:26.982Z,24.69
2017-07-23T13:22:37.276Z,24.3
2017-07-23T13:23:47.585Z,23.93
2017-07-23T13:24:57.872Z,22.58
2017-07-23T13:26:08.162Z,22.11
2017-07-23T13:27:18.460Z,21.25
2017-07-23T13:28:28.757Z,20.48
2017-07-23T13:29:39.043Z,19.13
2017-07-23T13:30:49.370Z,18.54
2017-07-23T13:31:59.660Z,18.56
2017-07-23T13:33:09.950Z,17.89
2017-07-23T13:34:19.940Z,18.1
2017-07-23T13:35:30.240Z,18.48
2017-07-23T13:36:39.905Z,19.05
2017-07-23T13:37:50.198Z,19.13
2017-07-23T13:39:00.174Z,18.91
2017-07-23T13:40:10.460Z,19.29
2017-07-23T13:41:20.745Z,19.96
2017-07-23T13:42:31.033Z,20.23
2017-07-23T13:43:41.345Z,20.12
2017-07-23T13:44:51.316Z,21.09
2017-07-23T13:46:01.604Z,22.35
2017-07-23T13:47:11.260Z,23.32
2017-07-23T13:48:21.558Z,23.6
2017-07-23T13:49:30.903Z,23.2
2017-07-23T13:50:40.874Z,23.58
2017-07-23T13:51:51.165Z,24.25
2017-07-23T13:53:01.450Z,24.82
2017-07-23T13:54:11.753Z,25.32
2017-07-23T13:55:22.041Z,25.31
2017-07-23T13:56:32.009Z,25.68
2017-07-23T13:57:42.299Z,25.96
2017-07-23T13:58:52.295Z,25.67
2017-07-23T14:00:02.597Z,26.34
2017-07-23T14:01:12.949Z,26.32
2017-07-23T14:02:22.912Z,26.72
2017-07-23T14:03:32.889Z,27.78
2017-07-23T14:04:42.881Z,27.68
2017-07-23T14:05:52.847Z,28.74
2017-07-23T14:07:03.124Z,27.76
2017-07-23T14:08:12.785Z,28.33
2017-07-23T14:09:23.070Z,29.5
2017-07-23T14:10:33.334Z,29.68
2017-07-23T14:11:43.613Z,30.55
2017-07-23T14:12:53.283Z,31.63
2017-07-23T14:14:03.254Z,29.97
2017-07-23T14:15:12.907Z,30.74
2017-07-23T14:16:22.562Z,31.13
2017-07-23T14:17:32.848Z,30.83
2017-07-23T14:18:42.510Z,31.03
2017-07-23T14:19:52.792Z,30.74
2017-07-23T14:21:02.754Z,29.96
2017-07-23T14:22:13.040Z,30.25
2017-07-23T14:23:22.690Z,31.11
2017-07-23T14:24:32.659Z,31.01
2017-07-23T14:25:42.935Z,30.72
2017-07-23T14:26:53.215Z,31.01
2017-07-23T14:28:03.190Z,29.96
2017-07-23T14:29:13.164Z,31.22
2017-07-23T14:30:23.445Z,30.33
2017-07-23T14:31:33.424Z,30.64
2017-07-23T14:32:43.709Z,30.54
2017-07-23T14:33:53.050Z,29.47
2017-07-23T14:35:03.329Z,30.25
2017-07-23T14:36:12.980Z,30.35
2017-07-23T14:37:22.629Z,30.17
2017-07-23T14:38:32.594Z,29.19
2017-07-23T14:39:42.261Z,28.92
2017-07-23T14:40:52.540Z,29.21
2017-07-23T14:42:02.188Z,28.72
2017-07-23T14:43:12.152Z,29.21
2017-07-23T14:44:22.118Z,29.11
2017-07-23T14:45:31.773Z,28.14
2017-07-23T14:46:41.420Z,29.11
2017-07-23T14:47:51.396Z,29.99
2017-07-23T14:49:01.371Z,29.89
2017-07-23T14:50:11.653Z,30
2017-07-23T14:51:21.623Z,29.99
2017-07-23T14:52:31.914Z,30.39
2017-07-23T14:53:42.194Z,30.29
2017-07-23T14:54:52.161Z,29.91
2017-07-23T14:56:02.126Z,29.91
2017-07-23T14:57:12.406Z,30.49
2017-07-23T14:58:22.691Z,29.91
2017-07-23T14:59:32.972Z,29.92
2017-07-23T15:00:42.624Z,29.33
2017-07-23T15:01:52.908Z,29.71
2017-07-23T15:03:02.562Z,29.82
2017-07-23T15:04:12.851Z,29.53
2017-07-23T15:05:23.133Z,30.29
2017-07-23T15:06:33.412Z,32.15